sensor_id;sensor_type;location;lat;lon;timestamp;P1;durP1;ratioP1;P2;durP2;ratioP2
32874;SDS011;40468;42.128;24.750;2023-04-25T00:01:27;4.60;;;2.35;;
32874;SDS011;40468;42.128;24.750;2023-04-25T00:02:58;3.28;;;2.30;;
32874;SDS011;40468;42.128;24.750;2023-04-25T00:04:30;4.13;;;2.22;;
32874;SDS011;40468;42.128;24.750;2023-04-25T00:06:03;3.15;;;1.92;;
32874;SDS011;40468;42.128;24.750;2023-04-25T00:07:36;7.45;;;2.78;;
32874;SDS011;40468;42.128;24.750;2023-04-25T00:09:08;4.38;;;2.17;;
32874;SDS011;40468;42.128;24.750;2023-04-25T00:10:41;4.00;;;2.28;;
32874;SDS011;40468;42.128;24.750;2023-04-25T00:12:13;4.40;;;2.70;;
32874;SDS011;40468;42.128;24.750;2023-04-25T00:13:45;3.60;;;2.67;;
32874;SDS011;40468;42.128;24.750;2023-04-25T00:15:21;4.28;;;2.45;;
32874;SDS011;40468;42.128;24.750;2023-04-25T00:18:24;3.42;;;1.88;;
32874;SDS011;40468;42.128;24.750;2023-04-25T00:19:58;2.40;;;1.95;;
32874;SDS011;40468;42.128;24.750;2023-04-25T00:21:30;3.13;;;1.75;;
32874;SDS011;40468;42.128;24.750;2023-04-25T00:23:01;4.10;;;2.15;;
32874;SDS011;40468;42.128;24.750;2023-04-25T00:24:33;3.50;;;1.90;;
32874;SDS011;40468;42.128;24.750;2023-04-25T00:26:05;2.60;;;1.70;;
32874;SDS011;40468;42.128;24.750;2023-04-25T00:27:37;4.03;;;1.83;;
32874;SDS011;40468;42.128;24.750;2023-04-25T00:29:11;3.20;;;1.90;;
32874;SDS011;40468;42.128;24.750;2023-04-25T00:30:44;2.97;;;1.75;;
32874;SDS011;40468;42.128;24.750;2023-04-25T00:32:16;4.43;;;2.42;;
32874;SDS011;40468;42.128;24.750;2023-04-25T00:33:47;8.00;;;3.00;;
32874;SDS011;40468;42.128;24.750;2023-04-25T00:35:19;3.10;;;2.30;;
32874;SDS011;40468;42.128;24.750;2023-04-25T00:36:51;3.17;;;2.03;;
32874;SDS011;40468;42.128;24.750;2023-04-25T00:38:23;4.97;;;1.90;;
32874;SDS011;40468;42.128;24.750;2023-04-25T00:39:55;4.57;;;2.08;;
32874;SDS011;40468;42.128;24.750;2023-04-25T00:41:27;2.97;;;1.90;;
32874;SDS011;40468;42.128;24.750;2023-04-25T00:43:00;3.38;;;2.30;;
32874;SDS011;40468;42.128;24.750;2023-04-25T00:44:32;3.95;;;2.40;;
32874;SDS011;40468;42.128;24.750;2023-04-25T00:46:05;7.95;;;3.17;;
32874;SDS011;40468;42.128;24.750;2023-04-25T00:47:36;4.75;;;2.33;;
32874;SDS011;40468;42.128;24.750;2023-04-25T00:49:09;3.67;;;2.60;;
32874;SDS011;40468;42.128;24.750;2023-04-25T00:50:48;7.85;;;2.53;;
32874;SDS011;40468;42.128;24.750;2023-04-25T00:52:22;3.58;;;2.22;;
32874;SDS011;40468;42.128;24.750;2023-04-25T00:53:54;4.75;;;2.80;;
32874;SDS011;40468;42.128;24.750;2023-04-25T00:55:26;8.32;;;3.03;;
32874;SDS011;40468;42.128;24.750;2023-04-25T00:56:59;4.38;;;2.72;;
32874;SDS011;40468;42.128;24.750;2023-04-25T00:58:31;5.13;;;2.90;;
32874;SDS011;40468;42.128;24.750;2023-04-25T01:00:03;6.15;;;2.70;;
32874;SDS011;40468;42.128;24.750;2023-04-25T01:01:38;4.43;;;2.50;;
32874;SDS011;40468;42.128;24.750;2023-04-25T01:03:10;3.70;;;2.50;;
32874;SDS011;40468;42.128;24.750;2023-04-25T01:04:42;5.47;;;2.63;;
32874;SDS011;40468;42.128;24.750;2023-04-25T01:06:14;3.58;;;2.65;;
32874;SDS011;40468;42.128;24.750;2023-04-25T01:07:46;3.60;;;2.38;;
32874;SDS011;40468;42.128;24.750;2023-04-25T01:09:18;4.07;;;2.65;;
32874;SDS011;40468;42.128;24.750;2023-04-25T01:10:49;5.45;;;2.33;;
32874;SDS011;40468;42.128;24.750;2023-04-25T01:12:21;3.88;;;2.10;;
32874;SDS011;40468;42.128;24.750;2023-04-25T01:13:54;3.65;;;2.33;;
32874;SDS011;40468;42.128;24.750;2023-04-25T01:15:26;4.07;;;2.78;;
32874;SDS011;40468;42.128;24.750;2023-04-25T01:16:59;5.07;;;2.63;;
32874;SDS011;40468;42.128;24.750;2023-04-25T01:18:31;3.60;;;2.53;;
32874;SDS011;40468;42.128;24.750;2023-04-25T01:20:03;3.42;;;2.33;;
32874;SDS011;40468;42.128;24.750;2023-04-25T01:23:08;3.67;;;2.33;;
32874;SDS011;40468;42.128;24.750;2023-04-25T01:24:41;3.37;;;2.27;;
32874;SDS011;40468;42.128;24.750;2023-04-25T01:26:13;3.70;;;2.40;;
32874;SDS011;40468;42.128;24.750;2023-04-25T01:27:45;2.60;;;2.22;;
32874;SDS011;40468;42.128;24.750;2023-04-25T01:29:16;4.45;;;2.30;;
32874;SDS011;40468;42.128;24.750;2023-04-25T01:30:49;4.13;;;2.50;;
32874;SDS011;40468;42.128;24.750;2023-04-25T01:32:23;3.63;;;2.70;;
32874;SDS011;40468;42.128;24.750;2023-04-25T01:33:55;3.78;;;2.70;;
32874;SDS011;40468;42.128;24.750;2023-04-25T01:35:28;3.80;;;2.72;;
32874;SDS011;40468;42.128;24.750;2023-04-25T01:37:01;3.58;;;2.60;;
32874;SDS011;40468;42.128;24.750;2023-04-25T01:38:33;3.28;;;2.65;;
32874;SDS011;40468;42.128;24.750;2023-04-25T01:40:05;3.45;;;2.25;;
32874;SDS011;40468;42.128;24.750;2023-04-25T01:41:38;3.83;;;2.50;;
32874;SDS011;40468;42.128;24.750;2023-04-25T01:43:09;3.00;;;2.42;;
32874;SDS011;40468;42.128;24.750;2023-04-25T01:44:42;3.72;;;2.80;;
32874;SDS011;40468;42.128;24.750;2023-04-25T01:46:14;2.83;;;2.30;;
32874;SDS011;40468;42.128;24.750;2023-04-25T01:47:46;4.63;;;2.85;;
32874;SDS011;40468;42.128;24.750;2023-04-25T01:49:19;4.95;;;2.97;;
32874;SDS011;40468;42.128;24.750;2023-04-25T01:50:51;3.22;;;2.45;;
32874;SDS011;40468;42.128;24.750;2023-04-25T01:52:24;3.55;;;2.70;;
32874;SDS011;40468;42.128;24.750;2023-04-25T01:53:56;4.57;;;3.20;;
32874;SDS011;40468;42.128;24.750;2023-04-25T01:55:28;5.65;;;3.60;;
32874;SDS011;40468;42.128;24.750;2023-04-25T01:57:00;5.50;;;4.15;;
32874;SDS011;40468;42.128;24.750;2023-04-25T01:58:32;6.82;;;3.95;;
32874;SDS011;40468;42.128;24.750;2023-04-25T02:00:04;11.82;;;4.68;;
32874;SDS011;40468;42.128;24.750;2023-04-25T02:01:38;6.55;;;4.57;;
32874;SDS011;40468;42.128;24.750;2023-04-25T02:03:10;6.70;;;4.22;;
32874;SDS011;40468;42.128;24.750;2023-04-25T02:04:41;6.72;;;4.10;;
32874;SDS011;40468;42.128;24.750;2023-04-25T02:06:13;7.40;;;4.90;;
32874;SDS011;40468;42.128;24.750;2023-04-25T02:07:46;8.75;;;6.03;;
32874;SDS011;40468;42.128;24.750;2023-04-25T02:09:18;7.93;;;5.80;;
32874;SDS011;40468;42.128;24.750;2023-04-25T02:10:51;10.38;;;6.18;;
32874;SDS011;40468;42.128;24.750;2023-04-25T02:12:22;10.43;;;5.75;;
32874;SDS011;40468;42.128;24.750;2023-04-25T02:15:27;12.13;;;5.72;;
32874;SDS011;40468;42.128;24.750;2023-04-25T02:16:58;7.13;;;5.30;;
32874;SDS011;40468;42.128;24.750;2023-04-25T02:18:30;7.85;;;5.05;;
32874;SDS011;40468;42.128;24.750;2023-04-25T02:20:03;8.95;;;4.65;;
32874;SDS011;40468;42.128;24.750;2023-04-25T02:21:36;10.10;;;4.97;;
32874;SDS011;40468;42.128;24.750;2023-04-25T02:23:09;6.40;;;4.50;;
32874;SDS011;40468;42.128;24.750;2023-04-25T02:24:41;5.97;;;4.50;;
32874;SDS011;40468;42.128;24.750;2023-04-25T02:26:12;8.68;;;5.25;;
32874;SDS011;40468;42.128;24.750;2023-04-25T02:27:44;7.45;;;4.90;;
32874;SDS011;40468;42.128;24.750;2023-04-25T02:29:16;6.57;;;4.63;;
32874;SDS011;40468;42.128;24.750;2023-04-25T02:30:48;8.68;;;5.25;;
32874;SDS011;40468;42.128;24.750;2023-04-25T02:32:19;5.40;;;4.22;;
32874;SDS011;40468;42.128;24.750;2023-04-25T02:33:51;8.27;;;4.78;;
32874;SDS011;40468;42.128;24.750;2023-04-25T02:35:23;11.10;;;5.22;;
32874;SDS011;40468;42.128;24.750;2023-04-25T02:36:54;6.00;;;4.32;;
32874;SDS011;40468;42.128;24.750;2023-04-25T02:38:27;5.90;;;4.20;;
32874;SDS011;40468;42.128;24.750;2023-04-25T02:39:59;9.98;;;4.35;;
32874;SDS011;40468;42.128;24.750;2023-04-25T02:41:33;7.45;;;4.32;;
32874;SDS011;40468;42.128;24.750;2023-04-25T02:43:05;7.13;;;4.55;;
32874;SDS011;40468;42.128;24.750;2023-04-25T02:44:35;5.78;;;4.18;;
32874;SDS011;40468;42.128;24.750;2023-04-25T02:46:07;8.07;;;4.68;;
32874;SDS011;40468;42.128;24.750;2023-04-25T02:47:39;10.55;;;5.13;;
32874;SDS011;40468;42.128;24.750;2023-04-25T02:49:11;7.75;;;4.32;;
32874;SDS011;40468;42.128;24.750;2023-04-25T02:50:43;8.20;;;5.22;;
32874;SDS011;40468;42.128;24.750;2023-04-25T02:52:15;8.02;;;5.03;;
32874;SDS011;40468;42.128;24.750;2023-04-25T02:53:49;6.68;;;4.57;;
32874;SDS011;40468;42.128;24.750;2023-04-25T02:55:19;7.53;;;5.43;;
32874;SDS011;40468;42.128;24.750;2023-04-25T02:56:52;6.93;;;5.07;;
32874;SDS011;40468;42.128;24.750;2023-04-25T02:58:24;7.43;;;5.38;;
32874;SDS011;40468;42.128;24.750;2023-04-25T02:59:56;8.32;;;5.50;;
32874;SDS011;40468;42.128;24.750;2023-04-25T03:01:28;7.60;;;5.45;;
32874;SDS011;40468;42.128;24.750;2023-04-25T03:02:59;7.82;;;4.70;;
32874;SDS011;40468;42.128;24.750;2023-04-25T03:04:31;7.78;;;5.10;;
32874;SDS011;40468;42.128;24.750;2023-04-25T03:06:04;9.43;;;5.10;;
32874;SDS011;40468;42.128;24.750;2023-04-25T03:07:35;7.57;;;5.30;;
32874;SDS011;40468;42.128;24.750;2023-04-25T03:09:11;11.75;;;7.03;;
32874;SDS011;40468;42.128;24.750;2023-04-25T03:12:15;10.93;;;6.43;;
32874;SDS011;40468;42.128;24.750;2023-04-25T03:13:47;13.32;;;7.50;;
32874;SDS011;40468;42.128;24.750;2023-04-25T03:15:19;11.32;;;6.88;;
32874;SDS011;40468;42.128;24.750;2023-04-25T03:16:50;11.68;;;6.70;;
32874;SDS011;40468;42.128;24.750;2023-04-25T03:18:22;10.55;;;6.63;;
32874;SDS011;40468;42.128;24.750;2023-04-25T03:19:54;11.02;;;6.25;;
32874;SDS011;40468;42.128;24.750;2023-04-25T03:21:26;11.80;;;6.25;;
32874;SDS011;40468;42.128;24.750;2023-04-25T03:22:58;10.00;;;6.95;;
32874;SDS011;40468;42.128;24.750;2023-04-25T03:24:31;8.70;;;6.00;;
32874;SDS011;40468;42.128;24.750;2023-04-25T03:26:03;8.95;;;5.57;;
32874;SDS011;40468;42.128;24.750;2023-04-25T03:27:35;9.48;;;5.97;;
32874;SDS011;40468;42.128;24.750;2023-04-25T03:29:06;8.45;;;5.63;;
32874;SDS011;40468;42.128;24.750;2023-04-25T03:30:37;8.10;;;5.43;;
32874;SDS011;40468;42.128;24.750;2023-04-25T03:32:09;8.40;;;5.50;;
32874;SDS011;40468;42.128;24.750;2023-04-25T03:33:41;9.20;;;5.55;;
32874;SDS011;40468;42.128;24.750;2023-04-25T03:35:13;8.55;;;5.78;;
32874;SDS011;40468;42.128;24.750;2023-04-25T03:36:44;8.70;;;5.47;;
32874;SDS011;40468;42.128;24.750;2023-04-25T03:38:16;12.40;;;5.82;;
32874;SDS011;40468;42.128;24.750;2023-04-25T03:39:49;9.68;;;6.10;;
32874;SDS011;40468;42.128;24.750;2023-04-25T03:42:53;8.55;;;5.05;;
32874;SDS011;40468;42.128;24.750;2023-04-25T03:44:23;10.30;;;6.28;;
32874;SDS011;40468;42.128;24.750;2023-04-25T03:45:55;11.65;;;5.55;;
32874;SDS011;40468;42.128;24.750;2023-04-25T03:47:27;9.50;;;5.38;;
32874;SDS011;40468;42.128;24.750;2023-04-25T03:48:59;8.35;;;5.38;;
32874;SDS011;40468;42.128;24.750;2023-04-25T03:50:30;8.80;;;5.57;;
32874;SDS011;40468;42.128;24.750;2023-04-25T03:52:02;8.77;;;5.70;;
32874;SDS011;40468;42.128;24.750;2023-04-25T03:53:34;9.20;;;5.85;;
32874;SDS011;40468;42.128;24.750;2023-04-25T03:55:08;6.90;;;4.93;;
32874;SDS011;40468;42.128;24.750;2023-04-25T03:56:40;8.85;;;4.95;;
32874;SDS011;40468;42.128;24.750;2023-04-25T03:58:12;9.55;;;5.38;;
32874;SDS011;40468;42.128;24.750;2023-04-25T03:59:44;11.43;;;5.75;;
32874;SDS011;40468;42.128;24.750;2023-04-25T04:01:16;10.63;;;5.57;;
32874;SDS011;40468;42.128;24.750;2023-04-25T04:02:47;14.48;;;7.05;;
32874;SDS011;40468;42.128;24.750;2023-04-25T04:04:19;11.05;;;6.40;;
32874;SDS011;40468;42.128;24.750;2023-04-25T04:05:51;10.07;;;5.88;;
32874;SDS011;40468;42.128;24.750;2023-04-25T04:07:23;10.15;;;5.75;;
32874;SDS011;40468;42.128;24.750;2023-04-25T04:08:54;10.07;;;6.47;;
32874;SDS011;40468;42.128;24.750;2023-04-25T04:10:28;10.25;;;6.25;;
32874;SDS011;40468;42.128;24.750;2023-04-25T04:12:00;9.13;;;6.53;;
32874;SDS011;40468;42.128;24.750;2023-04-25T04:13:32;11.88;;;6.50;;
32874;SDS011;40468;42.128;24.750;2023-04-25T04:15:04;10.05;;;6.35;;
32874;SDS011;40468;42.128;24.750;2023-04-25T04:16:37;11.02;;;7.00;;
32874;SDS011;40468;42.128;24.750;2023-04-25T04:18:09;11.27;;;7.35;;
32874;SDS011;40468;42.128;24.750;2023-04-25T04:19:40;12.63;;;6.63;;
32874;SDS011;40468;42.128;24.750;2023-04-25T04:21:12;10.15;;;6.38;;
32874;SDS011;40468;42.128;24.750;2023-04-25T04:22:45;14.52;;;7.57;;
32874;SDS011;40468;42.128;24.750;2023-04-25T04:24:16;12.32;;;6.93;;
32874;SDS011;40468;42.128;24.750;2023-04-25T04:25:50;11.93;;;7.03;;
32874;SDS011;40468;42.128;24.750;2023-04-25T04:27:22;12.45;;;8.05;;
32874;SDS011;40468;42.128;24.750;2023-04-25T04:28:54;12.57;;;7.57;;
32874;SDS011;40468;42.128;24.750;2023-04-25T04:30:26;13.95;;;7.70;;
32874;SDS011;40468;42.128;24.750;2023-04-25T04:31:59;12.10;;;7.03;;
32874;SDS011;40468;42.128;24.750;2023-04-25T04:33:33;13.27;;;8.85;;
32874;SDS011;40468;42.128;24.750;2023-04-25T04:35:05;11.02;;;7.75;;
32874;SDS011;40468;42.128;24.750;2023-04-25T04:36:39;85.82;;;49.00;;
32874;SDS011;40468;42.128;24.750;2023-04-25T04:38:11;38.80;;;20.73;;
32874;SDS011;40468;42.128;24.750;2023-04-25T04:39:45;40.60;;;23.52;;
32874;SDS011;40468;42.128;24.750;2023-04-25T04:41:18;23.67;;;14.15;;
32874;SDS011;40468;42.128;24.750;2023-04-25T04:42:50;13.80;;;8.40;;
32874;SDS011;40468;42.128;24.750;2023-04-25T04:44:23;12.30;;;7.40;;
32874;SDS011;40468;42.128;24.750;2023-04-25T04:45:56;13.43;;;8.85;;
32874;SDS011;40468;42.128;24.750;2023-04-25T04:47:28;19.88;;;11.40;;
32874;SDS011;40468;42.128;24.750;2023-04-25T04:49:02;15.15;;;9.63;;
32874;SDS011;40468;42.128;24.750;2023-04-25T04:50:38;14.23;;;9.15;;
32874;SDS011;40468;42.128;24.750;2023-04-25T04:52:13;24.98;;;12.55;;
32874;SDS011;40468;42.128;24.750;2023-04-25T04:53:47;12.75;;;8.45;;
32874;SDS011;40468;42.128;24.750;2023-04-25T04:55:19;11.00;;;6.95;;
32874;SDS011;40468;42.128;24.750;2023-04-25T04:56:53;10.75;;;7.30;;
32874;SDS011;40468;42.128;24.750;2023-04-25T05:00:00;17.13;;;7.47;;
32874;SDS011;40468;42.128;24.750;2023-04-25T05:01:33;11.32;;;7.55;;
32874;SDS011;40468;42.128;24.750;2023-04-25T05:03:05;12.43;;;8.23;;
32874;SDS011;40468;42.128;24.750;2023-04-25T05:04:37;14.13;;;8.93;;
32874;SDS011;40468;42.128;24.750;2023-04-25T05:06:09;12.98;;;8.60;;
32874;SDS011;40468;42.128;24.750;2023-04-25T05:07:40;15.07;;;9.50;;
32874;SDS011;40468;42.128;24.750;2023-04-25T05:09:12;13.98;;;8.95;;
32874;SDS011;40468;42.128;24.750;2023-04-25T05:10:45;14.90;;;8.77;;
32874;SDS011;40468;42.128;24.750;2023-04-25T05:12:18;13.18;;;8.75;;
32874;SDS011;40468;42.128;24.750;2023-04-25T05:13:51;12.13;;;8.20;;
32874;SDS011;40468;42.128;24.750;2023-04-25T05:15:23;11.90;;;8.35;;
32874;SDS011;40468;42.128;24.750;2023-04-25T05:16:55;10.50;;;7.13;;
32874;SDS011;40468;42.128;24.750;2023-04-25T05:18:28;11.68;;;7.53;;
32874;SDS011;40468;42.128;24.750;2023-04-25T05:20:00;13.38;;;8.02;;
32874;SDS011;40468;42.128;24.750;2023-04-25T05:21:31;14.13;;;8.20;;
32874;SDS011;40468;42.128;24.750;2023-04-25T05:23:04;12.60;;;8.20;;
32874;SDS011;40468;42.128;24.750;2023-04-25T05:24:36;15.90;;;8.40;;
32874;SDS011;40468;42.128;24.750;2023-04-25T05:26:08;14.73;;;8.15;;
32874;SDS011;40468;42.128;24.750;2023-04-25T05:27:45;12.95;;;8.40;;
32874;SDS011;40468;42.128;24.750;2023-04-25T05:29:17;13.38;;;7.97;;
32874;SDS011;40468;42.128;24.750;2023-04-25T05:30:49;14.80;;;8.45;;
32874;SDS011;40468;42.128;24.750;2023-04-25T05:32:21;19.25;;;8.82;;
32874;SDS011;40468;42.128;24.750;2023-04-25T05:33:53;11.95;;;7.72;;
32874;SDS011;40468;42.128;24.750;2023-04-25T05:35:25;14.98;;;8.48;;
32874;SDS011;40468;42.128;24.750;2023-04-25T05:36:57;13.18;;;7.88;;
32874;SDS011;40468;42.128;24.750;2023-04-25T05:38:30;10.98;;;7.72;;
32874;SDS011;40468;42.128;24.750;2023-04-25T05:40:02;12.23;;;7.73;;
32874;SDS011;40468;42.128;24.750;2023-04-25T05:41:37;11.32;;;7.07;;
32874;SDS011;40468;42.128;24.750;2023-04-25T05:43:11;11.18;;;7.43;;
32874;SDS011;40468;42.128;24.750;2023-04-25T05:46:15;12.38;;;7.40;;
32874;SDS011;40468;42.128;24.750;2023-04-25T05:47:47;10.63;;;7.50;;
32874;SDS011;40468;42.128;24.750;2023-04-25T05:49:20;13.45;;;7.93;;
32874;SDS011;40468;42.128;24.750;2023-04-25T05:50:52;11.32;;;7.93;;
32874;SDS011;40468;42.128;24.750;2023-04-25T05:52:24;12.93;;;7.32;;
32874;SDS011;40468;42.128;24.750;2023-04-25T05:53:57;14.15;;;8.00;;
32874;SDS011;40468;42.128;24.750;2023-04-25T05:55:29;11.65;;;7.47;;
32874;SDS011;40468;42.128;24.750;2023-04-25T05:57:00;16.65;;;8.05;;
32874;SDS011;40468;42.128;24.750;2023-04-25T05:58:34;18.25;;;8.77;;
32874;SDS011;40468;42.128;24.750;2023-04-25T06:01:40;15.00;;;9.13;;
32874;SDS011;40468;42.128;24.750;2023-04-25T06:03:13;12.55;;;7.32;;
32874;SDS011;40468;42.128;24.750;2023-04-25T06:04:46;13.07;;;7.85;;
32874;SDS011;40468;42.128;24.750;2023-04-25T06:06:18;10.07;;;6.05;;
32874;SDS011;40468;42.128;24.750;2023-04-25T06:07:50;10.80;;;6.40;;
32874;SDS011;40468;42.128;24.750;2023-04-25T06:09:22;7.53;;;5.00;;
32874;SDS011;40468;42.128;24.750;2023-04-25T06:10:54;4.43;;;3.08;;
32874;SDS011;40468;42.128;24.750;2023-04-25T06:12:26;6.53;;;4.18;;
32874;SDS011;40468;42.128;24.750;2023-04-25T06:14:04;7.72;;;4.85;;
32874;SDS011;40468;42.128;24.750;2023-04-25T06:15:37;8.10;;;4.88;;
32874;SDS011;40468;42.128;24.750;2023-04-25T06:17:09;5.68;;;4.22;;
32874;SDS011;40468;42.128;24.750;2023-04-25T06:18:41;7.90;;;5.03;;
32874;SDS011;40468;42.128;24.750;2023-04-25T06:20:13;7.97;;;4.95;;
32874;SDS011;40468;42.128;24.750;2023-04-25T06:21:45;10.18;;;5.95;;
32874;SDS011;40468;42.128;24.750;2023-04-25T06:23:17;7.63;;;5.03;;
32874;SDS011;40468;42.128;24.750;2023-04-25T06:24:49;7.70;;;5.10;;
32874;SDS011;40468;42.128;24.750;2023-04-25T06:26:21;9.15;;;5.40;;
32874;SDS011;40468;42.128;24.750;2023-04-25T06:27:53;9.38;;;5.38;;
32874;SDS011;40468;42.128;24.750;2023-04-25T06:29:27;9.20;;;5.30;;
32874;SDS011;40468;42.128;24.750;2023-04-25T06:30:59;11.10;;;5.45;;
32874;SDS011;40468;42.128;24.750;2023-04-25T06:32:31;8.00;;;5.57;;
32874;SDS011;40468;42.128;24.750;2023-04-25T06:34:04;8.55;;;5.68;;
32874;SDS011;40468;42.128;24.750;2023-04-25T06:37:43;7.82;;;5.47;;
32874;SDS011;40468;42.128;24.750;2023-04-25T06:41:56;7.65;;;5.22;;
32874;SDS011;40468;42.128;24.750;2023-04-25T06:44:18;13.98;;;5.90;;
32874;SDS011;40468;42.128;24.750;2023-04-25T06:46:07;13.65;;;5.65;;
32874;SDS011;40468;42.128;24.750;2023-04-25T06:47:40;9.57;;;5.65;;
32874;SDS011;40468;42.128;24.750;2023-04-25T06:49:14;14.27;;;6.60;;
32874;SDS011;40468;42.128;24.750;2023-04-25T06:50:46;12.68;;;5.38;;
32874;SDS011;40468;42.128;24.750;2023-04-25T06:52:18;12.00;;;4.72;;
32874;SDS011;40468;42.128;24.750;2023-04-25T06:53:50;11.38;;;4.70;;
32874;SDS011;40468;42.128;24.750;2023-04-25T06:55:22;14.30;;;5.68;;
32874;SDS011;40468;42.128;24.750;2023-04-25T06:56:54;9.35;;;5.60;;
32874;SDS011;40468;42.128;24.750;2023-04-25T06:58:27;9.17;;;4.83;;
32874;SDS011;40468;42.128;24.750;2023-04-25T07:00:00;8.70;;;5.38;;
32874;SDS011;40468;42.128;24.750;2023-04-25T07:01:36;8.38;;;5.22;;
32874;SDS011;40468;42.128;24.750;2023-04-25T07:03:08;14.77;;;4.97;;
32874;SDS011;40468;42.128;24.750;2023-04-25T07:04:40;9.82;;;5.07;;
32874;SDS011;40468;42.128;24.750;2023-04-25T07:06:12;6.72;;;4.55;;
32874;SDS011;40468;42.128;24.750;2023-04-25T07:07:44;9.05;;;4.60;;
32874;SDS011;40468;42.128;24.750;2023-04-25T07:09:17;13.55;;;4.93;;
32874;SDS011;40468;42.128;24.750;2023-04-25T07:10:49;9.35;;;5.20;;
32874;SDS011;40468;42.128;24.750;2023-04-25T07:12:21;7.38;;;5.15;;
32874;SDS011;40468;42.128;24.750;2023-04-25T07:13:53;12.63;;;4.90;;
32874;SDS011;40468;42.128;24.750;2023-04-25T07:15:25;12.45;;;4.30;;
32874;SDS011;40468;42.128;24.750;2023-04-25T07:16:59;18.20;;;12.53;;
32874;SDS011;40468;42.128;24.750;2023-04-25T07:18:31;12.95;;;6.35;;
32874;SDS011;40468;42.128;24.750;2023-04-25T07:20:03;10.93;;;5.65;;
32874;SDS011;40468;42.128;24.750;2023-04-25T07:21:39;9.27;;;5.68;;
32874;SDS011;40468;42.128;24.750;2023-04-25T07:23:11;13.40;;;5.47;;
32874;SDS011;40468;42.128;24.750;2023-04-25T07:24:43;6.63;;;5.07;;
32874;SDS011;40468;42.128;24.750;2023-04-25T07:26:18;13.90;;;6.25;;
32874;SDS011;40468;42.128;24.750;2023-04-25T07:27:53;12.05;;;7.10;;
32874;SDS011;40468;42.128;24.750;2023-04-25T07:29:25;13.57;;;6.07;;
32874;SDS011;40468;42.128;24.750;2023-04-25T07:30:57;16.75;;;6.40;;
32874;SDS011;40468;42.128;24.750;2023-04-25T07:32:31;9.32;;;6.05;;
32874;SDS011;40468;42.128;24.750;2023-04-25T07:35:35;14.68;;;6.10;;
32874;SDS011;40468;42.128;24.750;2023-04-25T07:37:07;13.18;;;5.65;;
32874;SDS011;40468;42.128;24.750;2023-04-25T07:38:39;12.13;;;6.65;;
32874;SDS011;40468;42.128;24.750;2023-04-25T07:40:11;13.00;;;7.90;;
32874;SDS011;40468;42.128;24.750;2023-04-25T07:41:45;21.42;;;7.03;;
32874;SDS011;40468;42.128;24.750;2023-04-25T07:43:17;13.43;;;6.32;;
32874;SDS011;40468;42.128;24.750;2023-04-25T07:44:50;11.07;;;7.53;;
32874;SDS011;40468;42.128;24.750;2023-04-25T07:46:22;15.63;;;7.50;;
32874;SDS011;40468;42.128;24.750;2023-04-25T07:47:55;9.82;;;7.57;;
32874;SDS011;40468;42.128;24.750;2023-04-25T07:49:27;20.50;;;7.32;;
32874;SDS011;40468;42.128;24.750;2023-04-25T07:50:59;17.20;;;7.55;;
32874;SDS011;40468;42.128;24.750;2023-04-25T07:52:31;14.80;;;7.07;;
32874;SDS011;40468;42.128;24.750;2023-04-25T07:54:03;15.00;;;7.10;;
32874;SDS011;40468;42.128;24.750;2023-04-25T07:55:36;9.48;;;6.10;;
32874;SDS011;40468;42.128;24.750;2023-04-25T07:57:10;11.88;;;6.32;;
32874;SDS011;40468;42.128;24.750;2023-04-25T07:58:44;11.88;;;5.55;;
32874;SDS011;40468;42.128;24.750;2023-04-25T08:00:16;13.70;;;5.82;;
32874;SDS011;40468;42.128;24.750;2023-04-25T08:01:48;9.13;;;5.85;;
32874;SDS011;40468;42.128;24.750;2023-04-25T08:03:22;10.67;;;5.60;;
32874;SDS011;40468;42.128;24.750;2023-04-25T08:04:54;6.88;;;5.07;;
32874;SDS011;40468;42.128;24.750;2023-04-25T08:06:26;8.35;;;5.38;;
32874;SDS011;40468;42.128;24.750;2023-04-25T08:07:59;14.67;;;5.60;;
32874;SDS011;40468;42.128;24.750;2023-04-25T08:09:32;8.77;;;5.68;;
32874;SDS011;40468;42.128;24.750;2023-04-25T08:12:37;9.20;;;3.90;;
32874;SDS011;40468;42.128;24.750;2023-04-25T08:14:11;10.63;;;4.70;;
32874;SDS011;40468;42.128;24.750;2023-04-25T08:15:42;7.53;;;4.07;;
32874;SDS011;40468;42.128;24.750;2023-04-25T08:17:14;8.00;;;4.63;;
32874;SDS011;40468;42.128;24.750;2023-04-25T08:18:47;18.00;;;5.18;;
32874;SDS011;40468;42.128;24.750;2023-04-25T08:20:21;7.15;;;4.35;;
32874;SDS011;40468;42.128;24.750;2023-04-25T08:21:53;7.15;;;4.28;;
32874;SDS011;40468;42.128;24.750;2023-04-25T08:23:26;5.28;;;3.92;;
32874;SDS011;40468;42.128;24.750;2023-04-25T08:24:58;6.60;;;3.40;;
32874;SDS011;40468;42.128;24.750;2023-04-25T08:26:30;8.75;;;4.55;;
32874;SDS011;40468;42.128;24.750;2023-04-25T08:28:02;8.88;;;3.60;;
32874;SDS011;40468;42.128;24.750;2023-04-25T08:29:34;8.88;;;3.55;;
32874;SDS011;40468;42.128;24.750;2023-04-25T08:31:06;8.02;;;3.80;;
32874;SDS011;40468;42.128;24.750;2023-04-25T08:32:38;6.03;;;3.42;;
32874;SDS011;40468;42.128;24.750;2023-04-25T08:34:12;7.97;;;4.25;;
32874;SDS011;40468;42.128;24.750;2023-04-25T08:35:44;14.07;;;3.75;;
32874;SDS011;40468;42.128;24.750;2023-04-25T08:37:16;12.50;;;3.90;;
32874;SDS011;40468;42.128;24.750;2023-04-25T08:40:22;5.30;;;2.65;;
32874;SDS011;40468;42.128;24.750;2023-04-25T08:41:58;2.92;;;2.40;;
32874;SDS011;40468;42.128;24.750;2023-04-25T08:43:32;4.60;;;2.40;;
32874;SDS011;40468;42.128;24.750;2023-04-25T08:45:06;3.70;;;2.40;;
32874;SDS011;40468;42.128;24.750;2023-04-25T08:48:11;5.53;;;1.98;;
32874;SDS011;40468;42.128;24.750;2023-04-25T08:49:46;5.55;;;2.78;;
32874;SDS011;40468;42.128;24.750;2023-04-25T08:51:21;4.82;;;2.30;;
32874;SDS011;40468;42.128;24.750;2023-04-25T08:52:55;5.07;;;2.95;;
32874;SDS011;40468;42.128;24.750;2023-04-25T08:54:32;4.65;;;2.03;;
32874;SDS011;40468;42.128;24.750;2023-04-25T08:56:04;3.60;;;2.20;;
32874;SDS011;40468;42.128;24.750;2023-04-25T08:57:39;3.78;;;1.80;;
32874;SDS011;40468;42.128;24.750;2023-04-25T08:59:14;3.00;;;2.08;;
32874;SDS011;40468;42.128;24.750;2023-04-25T09:00:46;4.70;;;2.15;;
32874;SDS011;40468;42.128;24.750;2023-04-25T09:02:18;7.95;;;2.53;;
32874;SDS011;40468;42.128;24.750;2023-04-25T09:03:51;4.68;;;2.20;;
32874;SDS011;40468;42.128;24.750;2023-04-25T09:05:25;4.60;;;2.00;;
32874;SDS011;40468;42.128;24.750;2023-04-25T09:06:58;4.32;;;2.05;;
32874;SDS011;40468;42.128;24.750;2023-04-25T09:08:30;2.22;;;1.83;;
32874;SDS011;40468;42.128;24.750;2023-04-25T09:10:03;3.67;;;2.00;;
32874;SDS011;40468;42.128;24.750;2023-04-25T09:11:35;4.30;;;2.07;;
32874;SDS011;40468;42.128;24.750;2023-04-25T09:13:08;5.85;;;3.13;;
32874;SDS011;40468;42.128;24.750;2023-04-25T09:14:42;5.03;;;3.75;;
32874;SDS011;40468;42.128;24.750;2023-04-25T09:16:31;34.78;;;21.23;;
32874;SDS011;40468;42.128;24.750;2023-04-25T09:18:03;7.15;;;3.97;;
32874;SDS011;40468;42.128;24.750;2023-04-25T09:19:35;5.85;;;2.50;;
32874;SDS011;40468;42.128;24.750;2023-04-25T09:21:11;40.35;;;4.95;;
32874;SDS011;40468;42.128;24.750;2023-04-25T09:25:51;3.38;;;2.33;;
32874;SDS011;40468;42.128;24.750;2023-04-25T09:27:24;2.95;;;2.25;;
32874;SDS011;40468;42.128;24.750;2023-04-25T09:29:04;2.72;;;2.10;;
32874;SDS011;40468;42.128;24.750;2023-04-25T09:30:38;4.97;;;2.03;;
32874;SDS011;40468;42.128;24.750;2023-04-25T09:32:10;13.57;;;2.38;;
32874;SDS011;40468;42.128;24.750;2023-04-25T09:33:44;2.65;;;2.17;;